メインページ
METAR-TAF:

METAR-TAF

空港 :

ロングイェールビーン, ノルウェー

緯度: 78-15N, 経度: 015-28E, 海抜: 2m

現時点の気象観測

当レポートは59分前の09:50(UTC)に作成
南東の風 10kt
気温 0°C
湿度 69%
気圧 1001 hPa
視程10km以上
高度2800ftの雲はほとんどない
高度4000ftの千切れ雲あり

METAR: ENSB 210950Z 13010KT 9999 FEW028 BKN040 00/M05 Q1001 RMK WIND 1400FT 12012KT

時間: 12:49 (10:49 UTC)

予報

予報は21日の 06時(UTC)から 22日の 06時(UTC)まで有効
東/南東の風 10kt
視程10km以上
高度1500ftの雲はほとんどない
高度3000ftの雲は散在している

TAF: ENSB 2106/2206 12010KT 9999 FEW015 SCT030

4,000以上の空港の気象観測と天気予報(METAR報とTAF報)

利用可能な観測所は地図上に黄色い丸と赤い丸で示す。

丸の上にカーソルを重ねると観測所名を参照できる。

次にクリックすると気象観測と天気予報を参照できる。

マップの切り替え:黒色「×」印の緑ボタンをクリックして拡大、「-」印の緑ボタンをクリックして縮小、緑色の三角印をクリックして隣りの地図に切り替え


METAR-TAF: